Time;durP1;ratioP1;P1;durP2;ratioP2;P2;SDS_P1;SDS_P2;PMS_P1;PMS_P2;Temp;Humidity;BMP_temperature;BMP_pressure;BME280_temperature;BME280_humidity;BME280_pressure;Samples;Min_cycle;Max_cycle;Signal;HPM_P1;HPM_P2
2023/03/31 00:00:28;;;;;;;;;;;11.30;70.50;;;;;;5966475;23;19917;-81
2023/03/31 00:02:54;;;;;;;;;;;11.30;70.50;;;;;;5989677;23;19952;-81
2023/03/31 00:05:23;;;;;;;;;;;11.20;70.40;;;;;;5961507;23;19984;-81
2023/03/31 00:07:52;;;;;;;;;;;11.20;70.50;;;;;;5966199;23;19939;-80
2023/03/31 00:10:18;;;;;;;;;;;11.20;70.50;;;;;;5961347;23;19910;-80
2023/03/31 00:12:44;;;;;;;;;;;11.20;70.60;;;;;;5947192;23;19935;-81
2023/03/31 00:15:09;;;;;;;;;;;11.20;70.60;;;;;;5987829;23;20954;-81
2023/03/31 00:17:35;;;;;;;;;;;11.20;70.50;;;;;;5966391;23;19909;-80
2023/03/31 00:20:07;;;;;;;;;;;11.20;70.60;;;;;;5966707;23;19909;-81
2023/03/31 00:22:33;;;;;;;;;;;11.20;70.60;;;;;;5966849;23;19913;-81
2023/03/31 00:24:59;;;;;;;;;;;11.20;70.60;;;;;;5965044;23;20344;-81
2023/03/31 00:27:27;;;;;;;;;;;11.10;70.50;;;;;;5989458;23;20276;-80
2023/03/31 00:29:52;;;;;;;;;;;11.10;70.60;;;;;;5990320;23;19992;-81
2023/03/31 00:32:18;;;;;;;;;;;11.10;70.60;;;;;;5987330;23;20011;-80
2023/03/31 00:34:45;;;;;;;;;;;11.10;70.60;;;;;;5966788;23;19916;-81
2023/03/31 00:37:13;;;;;;;;;;;11.10;70.60;;;;;;5965982;23;19909;-80
2023/03/31 00:39:39;;;;;;;;;;;11.10;70.60;;;;;;5966625;23;19925;-81
2023/03/31 00:42:04;;;;;;;;;;;11.10;70.60;;;;;;5969132;23;19913;-80
2023/03/31 00:44:32;;;;;;;;;;;11.10;70.60;;;;;;5990581;23;19915;-80
2023/03/31 00:47:01;;;;;;;;;;;11.00;70.70;;;;;;5970824;23;20288;-80
2023/03/31 00:49:26;;;;;;;;;;;11.00;70.70;;;;;;5967764;23;20483;-80
2023/03/31 00:51:53;;;;;;;;;;;11.00;70.70;;;;;;5975940;23;20100;-80
2023/03/31 00:54:20;;;;;;;;;;;10.90;70.70;;;;;;5968772;23;19940;-80
2023/03/31 00:56:47;;;;;;;;;;;10.90;70.80;;;;;;5988829;23;19909;-79
2023/03/31 00:59:13;;;;;;;;;;;10.90;70.80;;;;;;5964766;23;19909;-80
2023/03/31 01:01:38;;;;;;;;;;;10.90;70.80;;;;;;5987437;23;20422;-81
2023/03/31 01:04:06;;;;;;;;;;;10.90;70.90;;;;;;5966518;23;19943;-80
2023/03/31 01:06:31;;;;;;;;;;;10.80;70.80;;;;;;5966043;23;19959;-80
2023/03/31 01:08:57;;;;;;;;;;;10.80;70.90;;;;;;5964597;23;19909;-80
2023/03/31 01:11:23;;;;;;;;;;;10.80;70.90;;;;;;5989342;23;19917;-81
2023/03/31 01:13:49;;;;;;;;;;;10.80;71.00;;;;;;5967412;23;19976;-80
2023/03/31 01:16:15;;;;;;;;;;;10.80;71.00;;;;;;5964604;23;19909;-81
2023/03/31 01:18:45;;;;;;;;;;;10.70;70.90;;;;;;5964622;23;19963;-80
2023/03/31 01:21:17;;;;;;;;;;;10.70;70.90;;;;;;5964585;23;19939;-81
2023/03/31 01:23:42;;;;;;;;;;;10.70;71.10;;;;;;5951772;23;19909;-81
2023/03/31 01:26:14;;;;;;;;;;;10.70;71.00;;;;;;5952856;23;19920;-81
2023/03/31 01:28:45;;;;;;;;;;;10.70;71.10;;;;;;5962453;23;20371;-80
2023/03/31 01:31:20;;;;;;;;;;;10.70;71.10;;;;;;5988366;23;19920;-80
2023/03/31 01:33:46;;;;;;;;;;;10.70;71.10;;;;;;5946009;23;20336;-81
2023/03/31 01:36:15;;;;;;;;;;;10.60;71.00;;;;;;5965835;23;19909;-80
2023/03/31 01:38:52;;;;;;;;;;;10.60;71.10;;;;;;5963655;23;19916;-81
2023/03/31 01:41:26;;;;;;;;;;;10.70;71.20;;;;;;5944500;23;19920;-80
2023/03/31 01:44:00;;;;;;;;;;;10.70;71.20;;;;;;5968580;23;20561;-81
2023/03/31 01:46:27;;;;;;;;;;;10.70;71.20;;;;;;5987111;23;19988;-80
2023/03/31 01:48:54;;;;;;;;;;;10.70;71.20;;;;;;5966243;23;20589;-79
2023/03/31 01:51:27;;;;;;;;;;;10.70;72.00;;;;;;5967003;23;19913;-80
2023/03/31 01:54:11;;;;;;;;;;;10.70;71.20;;;;;;5963411;23;20722;-80
2023/03/31 01:56:56;;;;;;;;;;;10.70;71.10;;;;;;5955374;23;20004;-81
2023/03/31 01:59:22;;;;;;;;;;;10.70;71.20;;;;;;5971359;23;20447;-81
2023/03/31 02:01:54;;;;;;;;;;;10.70;71.20;;;;;;5964098;23;19971;-80
2023/03/31 02:04:20;;;;;;;;;;;10.70;71.20;;;;;;5967586;23;19910;-80
2023/03/31 02:06:48;;;;;;;;;;;10.70;71.20;;;;;;5986376;23;19916;-80
2023/03/31 02:09:24;;;;;;;;;;;10.70;71.20;;;;;;5964785;23;19913;-79
2023/03/31 02:11:50;;;;;;;;;;;10.80;71.20;;;;;;5963280;23;19910;-80
2023/03/31 02:14:17;;;;;;;;;;;10.80;71.20;;;;;;5964742;23;19921;-80
2023/03/31 02:16:46;;;;;;;;;;;10.80;71.20;;;;;;5964800;23;19932;-80
2023/03/31 02:19:12;;;;;;;;;;;10.80;71.20;;;;;;5963576;23;19909;-81
2023/03/31 02:21:38;;;;;;;;;;;10.80;71.20;;;;;;5964693;23;20012;-81
2023/03/31 02:24:05;;;;;;;;;;;10.80;71.20;;;;;;5958958;23;20565;-81
2023/03/31 02:26:32;;;;;;;;;;;10.80;71.20;;;;;;5962982;23;19921;-81
2023/03/31 02:28:58;;;;;;;;;;;10.80;71.20;;;;;;5964080;23;20428;-80
2023/03/31 02:31:42;;;;;;;;;;;10.80;71.20;;;;;;5966177;23;19909;-81
2023/03/31 02:34:07;;;;;;;;;;;10.80;71.20;;;;;;5967240;23;21071;-80
2023/03/31 02:36:33;;;;;;;;;;;10.80;71.20;;;;;;5965553;23;19944;-80
2023/03/31 02:39:01;;;;;;;;;;;10.80;71.20;;;;;;5939956;23;19913;-81
2023/03/31 02:41:26;;;;;;;;;;;10.80;71.20;;;;;;5992790;23;19917;-80
2023/03/31 02:43:52;;;;;;;;;;;10.80;71.30;;;;;;5962160;23;19913;-80
2023/03/31 02:46:17;;;;;;;;;;;10.70;71.20;;;;;;5941051;24;19917;-80
2023/03/31 02:48:47;;;;;;;;;;;10.70;71.30;;;;;;5983979;23;20311;-81
2023/03/31 02:51:12;;;;;;;;;;;10.70;71.30;;;;;;5986731;23;19940;-80
2023/03/31 02:53:53;;;;;;;;;;;10.70;71.30;;;;;;5964438;23;19909;-80
2023/03/31 02:56:22;;;;;;;;;;;10.70;71.30;;;;;;5956001;23;19936;-80
2023/03/31 02:59:03;;;;;;;;;;;10.70;72.20;;;;;;5939710;23;19913;-80
2023/03/31 03:01:44;;;;;;;;;;;10.70;71.40;;;;;;5970855;23;19920;-80
2023/03/31 03:04:15;;;;;;;;;;;10.70;71.40;;;;;;5954945;23;19909;-80
2023/03/31 03:06:59;;;;;;;;;;;10.60;71.40;;;;;;5962302;23;19909;-80
2023/03/31 03:09:30;;;;;;;;;;;10.60;71.40;;;;;;5963474;23;19909;-80
2023/03/31 03:12:04;;;;;;;;;;;10.60;71.40;;;;;;5963116;23;19941;-80
2023/03/31 03:14:39;;;;;;;;;;;10.60;71.50;;;;;;5962540;23;20004;-80
2023/03/31 03:17:06;;;;;;;;;;;10.60;71.50;;;;;;5974416;23;19909;-80
2023/03/31 03:19:32;;;;;;;;;;;10.50;71.40;;;;;;5986419;23;19951;-80
2023/03/31 03:21:57;;;;;;;;;;;10.50;71.50;;;;;;5962423;23;20559;-80
2023/03/31 03:24:22;;;;;;;;;;;10.50;71.50;;;;;;5990648;23;19976;-80
2023/03/31 03:26:48;;;;;;;;;;;10.50;71.50;;;;;;5988510;23;19919;-81
2023/03/31 03:29:14;;;;;;;;;;;10.50;71.50;;;;;;5965877;23;19932;-80
2023/03/31 03:31:39;;;;;;;;;;;10.50;71.50;;;;;;5986535;23;19920;-79
2023/03/31 03:34:05;;;;;;;;;;;10.50;71.60;;;;;;5965381;23;20348;-80
2023/03/31 03:36:31;;;;;;;;;;;10.50;71.60;;;;;;5968332;23;19909;-80
2023/03/31 03:38:57;;;;;;;;;;;10.50;71.50;;;;;;5967565;23;20502;-81
2023/03/31 03:41:22;;;;;;;;;;;10.60;71.60;;;;;;5968285;23;19917;-80
2023/03/31 03:43:48;;;;;;;;;;;10.60;71.60;;;;;;5966543;23;19999;-80
2023/03/31 03:46:13;;;;;;;;;;;10.60;71.60;;;;;;5966508;23;19909;-80
2023/03/31 03:48:38;;;;;;;;;;;10.60;71.60;;;;;;5969400;23;19923;-81
2023/03/31 03:51:05;;;;;;;;;;;10.60;71.70;;;;;;5987702;23;19971;-81
2023/03/31 03:53:30;;;;;;;;;;;10.60;72.30;;;;;;5966828;23;19917;-80
2023/03/31 03:55:58;;;;;;;;;;;10.60;71.60;;;;;;5963752;23;19924;-81
2023/03/31 03:58:23;;;;;;;;;;;10.60;71.60;;;;;;5990014;23;19987;-80
2023/03/31 04:00:49;;;;;;;;;;;10.60;71.60;;;;;;5987855;23;19960;-79
2023/03/31 04:03:15;;;;;;;;;;;10.60;71.60;;;;;;5963737;23;20503;-81
2023/03/31 04:05:40;;;;;;;;;;;10.70;71.70;;;;;;5966173;23;19912;-80
2023/03/31 04:08:07;;;;;;;;;;;10.70;71.70;;;;;;5958920;23;19905;-81
2023/03/31 04:10:33;;;;;;;;;;;10.70;71.70;;;;;;5963248;23;20383;-80
2023/03/31 04:12:59;;;;;;;;;;;10.70;71.70;;;;;;5965208;23;19917;-81
2023/03/31 04:15:24;;;;;;;;;;;10.70;71.70;;;;;;5990211;23;20466;-81
2023/03/31 04:17:53;;;;;;;;;;;10.70;71.70;;;;;;5953474;23;19994;-80
2023/03/31 04:20:18;;;;;;;;;;;10.70;71.70;;;;;;5955132;23;19963;-80
2023/03/31 04:22:46;;;;;;;;;;;10.70;71.70;;;;;;5961848;23;19984;-81
2023/03/31 04:25:15;;;;;;;;;;;10.70;71.70;;;;;;5965615;23;19988;-80
2023/03/31 04:27:45;;;;;;;;;;;10.70;71.70;;;;;;5967996;23;20300;-81
2023/03/31 04:30:23;;;;;;;;;;;10.70;71.70;;;;;;5947261;23;19909;-81
2023/03/31 04:32:49;;;;;;;;;;;10.70;71.80;;;;;;5947894;23;19914;-80
2023/03/31 04:35:16;;;;;;;;;;;10.70;71.80;;;;;;5936515;23;19957;-81
2023/03/31 04:37:57;;;;;;;;;;;10.70;71.80;;;;;;5983773;23;20331;-79
2023/03/31 04:40:25;;;;;;;;;;;10.70;71.80;;;;;;5965103;23;19916;-81
2023/03/31 04:42:51;;;;;;;;;;;10.70;71.80;;;;;;5963524;23;19909;-80
2023/03/31 04:45:16;;;;;;;;;;;10.70;71.80;;;;;;5963644;23;20378;-80
2023/03/31 04:47:42;;;;;;;;;;;10.70;71.80;;;;;;5967118;23;20364;-81
2023/03/31 04:50:09;;;;;;;;;;;10.70;71.80;;;;;;5988892;23;19905;-80
2023/03/31 04:52:34;;;;;;;;;;;10.70;71.80;;;;;;5962860;23;20311;-80
2023/03/31 04:55:00;;;;;;;;;;;10.70;71.80;;;;;;5963901;23;19959;-80
2023/03/31 04:57:25;;;;;;;;;;;10.70;71.90;;;;;;5987884;23;20433;-80
2023/03/31 04:59:51;;;;;;;;;;;10.70;71.90;;;;;;5963842;23;19910;-82
2023/03/31 05:02:22;;;;;;;;;;;10.70;71.90;;;;;;5964990;23;19920;-81
2023/03/31 05:04:50;;;;;;;;;;;10.70;72.00;;;;;;5964745;23;19913;-80
2023/03/31 05:07:16;;;;;;;;;;;10.70;71.90;;;;;;5960651;23;19909;-82
2023/03/31 05:09:42;;;;;;;;;;;10.70;72.00;;;;;;5322497;23;19931;-79
2023/03/31 05:12:07;;;;;;;;;;;10.70;72.00;;;;;;4934828;28;20430;-75
2023/03/31 05:14:33;;;;;;;;;;;10.70;71.90;;;;;;4914230;29;19921;-78
2023/03/31 05:16:58;;;;;;;;;;;10.70;72.00;;;;;;4901546;29;19954;-76
2023/03/31 05:19:23;;;;;;;;;;;10.60;71.90;;;;;;4916507;28;19915;-77
2023/03/31 05:21:49;;;;;;;;;;;10.70;72.00;;;;;;4905078;29;19938;-76
2023/03/31 05:24:14;;;;;;;;;;;10.70;72.00;;;;;;4902138;29;20098;-79
2023/03/31 05:26:40;;;;;;;;;;;10.70;72.00;;;;;;4917342;29;20511;-77
2023/03/31 05:29:06;;;;;;;;;;;10.60;72.00;;;;;;4916753;28;19942;-78
2023/03/31 05:31:31;;;;;;;;;;;10.70;72.00;;;;;;4903094;29;20395;-77
2023/03/31 05:33:57;;;;;;;;;;;10.60;72.00;;;;;;4901492;29;19925;-79
2023/03/31 05:36:22;;;;;;;;;;;10.70;72.00;;;;;;4902251;29;19953;-79
2023/03/31 05:38:47;;;;;;;;;;;10.70;72.00;;;;;;4901490;29;19919;-78
2023/03/31 05:41:15;;;;;;;;;;;10.60;72.00;;;;;;4913480;29;19922;-78
2023/03/31 05:43:42;;;;;;;;;;;10.70;72.10;;;;;;4912964;29;19926;-77
2023/03/31 05:46:07;;;;;;;;;;;10.70;72.00;;;;;;4900288;29;19927;-77
2023/03/31 05:48:33;;;;;;;;;;;10.70;72.00;;;;;;4916768;29;19919;-78
2023/03/31 05:50:58;;;;;;;;;;;10.70;72.00;;;;;;4916416;29;19943;-79
2023/03/31 05:53:24;;;;;;;;;;;10.70;72.00;;;;;;4908348;29;19929;-80
2023/03/31 05:55:54;;;;;;;;;;;10.70;72.10;;;;;;4918062;29;20006;-79
2023/03/31 05:58:20;;;;;;;;;;;10.60;72.00;;;;;;4919874;29;20351;-80
2023/03/31 06:00:45;;;;;;;;;;;10.70;72.10;;;;;;4919150;29;20702;-78
2023/03/31 06:03:11;;;;;;;;;;;10.60;72.00;;;;;;4903011;29;19979;-78
2023/03/31 06:05:36;;;;;;;;;;;10.70;72.10;;;;;;4900355;29;19926;-81
2023/03/31 06:08:02;;;;;;;;;;;10.70;72.10;;;;;;4901929;29;19929;-79
2023/03/31 06:10:28;;;;;;;;;;;10.60;72.10;;;;;;4895289;29;19991;-79
2023/03/31 06:12:53;;;;;;;;;;;10.70;72.20;;;;;;4901715;29;19922;-78
2023/03/31 06:15:18;;;;;;;;;;;10.60;72.10;;;;;;4903209;29;19919;-80
2023/03/31 06:17:44;;;;;;;;;;;10.60;72.20;;;;;;4904581;29;20362;-78
2023/03/31 06:20:09;;;;;;;;;;;10.70;72.20;;;;;;4903403;29;19919;-80
2023/03/31 06:22:35;;;;;;;;;;;10.60;72.20;;;;;;4904165;29;19957;-79
2023/03/31 06:25:00;;;;;;;;;;;10.60;72.20;;;;;;4902299;29;19915;-79
2023/03/31 06:27:26;;;;;;;;;;;10.60;72.20;;;;;;4915064;29;19925;-79
2023/03/31 06:29:51;;;;;;;;;;;10.60;72.20;;;;;;4902378;29;19979;-79
2023/03/31 06:32:17;;;;;;;;;;;10.60;72.30;;;;;;4903022;29;20302;-80
2023/03/31 06:34:42;;;;;;;;;;;10.60;72.20;;;;;;4917254;29;19934;-79
2023/03/31 06:37:08;;;;;;;;;;;10.60;72.30;;;;;;4903221;29;20164;-80
2023/03/31 06:39:33;;;;;;;;;;;10.60;72.30;;;;;;4903368;29;19918;-79
2023/03/31 06:41:59;;;;;;;;;;;10.60;72.30;;;;;;4915900;29;19922;-79
2023/03/31 06:44:24;;;;;;;;;;;10.60;72.30;;;;;;4898274;29;19926;-80
2023/03/31 06:46:49;;;;;;;;;;;10.60;72.40;;;;;;4897399;29;19915;-77
2023/03/31 06:49:15;;;;;;;;;;;10.60;72.30;;;;;;4899173;29;19919;-79
2023/03/31 06:51:40;;;;;;;;;;;10.60;72.40;;;;;;4906760;29;20560;-81
2023/03/31 06:54:06;;;;;;;;;;;10.60;72.40;;;;;;4911236;29;19919;-80
2023/03/31 06:56:32;;;;;;;;;;;10.60;72.40;;;;;;4890409;29;19919;-78
2023/03/31 06:58:57;;;;;;;;;;;10.60;72.40;;;;;;4894653;29;20461;-78
2023/03/31 07:01:22;;;;;;;;;;;10.60;72.40;;;;;;4918927;29;19930;-79
2023/03/31 07:03:48;;;;;;;;;;;10.60;72.40;;;;;;4914824;29;19915;-79
2023/03/31 07:06:13;;;;;;;;;;;10.60;72.40;;;;;;4897656;29;19919;-80
2023/03/31 07:08:39;;;;;;;;;;;10.60;72.40;;;;;;4902167;29;19985;-79
2023/03/31 07:11:05;;;;;;;;;;;10.60;72.40;;;;;;4916037;29;19919;-79
2023/03/31 07:13:30;;;;;;;;;;;10.60;72.50;;;;;;4889545;29;19923;-78
2023/03/31 07:15:56;;;;;;;;;;;10.60;72.50;;;;;;4915995;29;19983;-80
2023/03/31 07:18:24;;;;;;;;;;;10.60;72.50;;;;;;4916560;29;20291;-80
2023/03/31 07:20:50;;;;;;;;;;;10.60;72.50;;;;;;4909505;29;19930;-79
2023/03/31 07:23:15;;;;;;;;;;;10.60;72.50;;;;;;4893292;29;19915;-79
2023/03/31 07:25:41;;;;;;;;;;;10.60;72.50;;;;;;4916577;29;19919;-77
2023/03/31 07:28:06;;;;;;;;;;;10.60;72.50;;;;;;4899791;29;19929;-79
2023/03/31 07:30:32;;;;;;;;;;;10.60;72.60;;;;;;4901516;28;20628;-77
2023/03/31 07:32:57;;;;;;;;;;;10.50;72.50;;;;;;4911204;29;19915;-78
2023/03/31 07:35:23;;;;;;;;;;;10.50;72.60;;;;;;4890002;29;19919;-78
2023/03/31 07:37:49;;;;;;;;;;;10.50;72.50;;;;;;4917833;29;19925;-77
2023/03/31 07:40:15;;;;;;;;;;;10.50;72.60;;;;;;4905476;29;19954;-78
2023/03/31 07:42:41;;;;;;;;;;;10.50;72.60;;;;;;4905624;29;19922;-79
2023/03/31 07:45:07;;;;;;;;;;;10.50;72.60;;;;;;4915093;28;19919;-78
2023/03/31 07:47:32;;;;;;;;;;;10.60;72.70;;;;;;4898791;29;19978;-79
2023/03/31 07:49:57;;;;;;;;;;;10.60;72.70;;;;;;4921005;29;19919;-77
2023/03/31 07:52:23;;;;;;;;;;;10.60;72.70;;;;;;4908520;29;20458;-78
2023/03/31 07:54:48;;;;;;;;;;;10.60;72.70;;;;;;4901673;29;19979;-77
2023/03/31 07:57:15;;;;;;;;;;;10.60;72.60;;;;;;4910245;29;19953;-79
2023/03/31 07:59:41;;;;;;;;;;;10.60;72.80;;;;;;4892978;29;19919;-78
2023/03/31 08:02:06;;;;;;;;;;;10.60;72.70;;;;;;4898815;29;19923;-78
2023/03/31 08:04:31;;;;;;;;;;;10.60;72.70;;;;;;4901628;29;19920;-78
2023/03/31 08:06:57;;;;;;;;;;;10.60;72.80;;;;;;4890608;29;19919;-78
2023/03/31 08:09:22;;;;;;;;;;;10.70;72.80;;;;;;4901645;29;19934;-77
2023/03/31 08:11:48;;;;;;;;;;;10.70;72.80;;;;;;4906501;28;19970;-78
2023/03/31 08:14:13;;;;;;;;;;;10.70;72.80;;;;;;4916777;29;20648;-76
2023/03/31 08:16:39;;;;;;;;;;;10.70;72.80;;;;;;4901993;29;19954;-78
2023/03/31 08:19:04;;;;;;;;;;;10.70;72.80;;;;;;4902047;29;20429;-80
2023/03/31 08:21:30;;;;;;;;;;;10.70;72.90;;;;;;4913550;29;20406;-78
2023/03/31 08:23:56;;;;;;;;;;;10.70;72.90;;;;;;4902279;29;19922;-79
2023/03/31 08:26:23;;;;;;;;;;;10.80;72.90;;;;;;4918073;28;19915;-78
2023/03/31 08:28:48;;;;;;;;;;;10.80;72.90;;;;;;4898022;29;19926;-78
2023/03/31 08:31:17;;;;;;;;;;;10.80;72.90;;;;;;4867148;29;19923;-77
2023/03/31 08:33:43;;;;;;;;;;;10.90;72.90;;;;;;4897606;29;19926;-77
2023/03/31 08:36:09;;;;;;;;;;;10.90;73.00;;;;;;4894249;29;20313;-77
2023/03/31 08:38:36;;;;;;;;;;;11.00;72.90;;;;;;4889372;29;20668;-77
2023/03/31 08:41:02;;;;;;;;;;;11.00;72.90;;;;;;4904258;29;19920;-80
2023/03/31 08:43:29;;;;;;;;;;;11.00;72.80;;;;;;4916703;29;19923;-79
2023/03/31 08:45:55;;;;;;;;;;;11.00;72.90;;;;;;4913609;29;20034;-78
2023/03/31 08:48:24;;;;;;;;;;;11.10;73.10;;;;;;4900317;29;20289;-77
2023/03/31 08:50:51;;;;;;;;;;;11.10;73.10;;;;;;4898534;29;19946;-79
2023/03/31 08:53:23;;;;;;;;;;;11.10;73.10;;;;;;4917597;29;19923;-77
2023/03/31 08:55:49;;;;;;;;;;;11.10;73.10;;;;;;4913482;29;20002;-78
2023/03/31 08:58:20;;;;;;;;;;;11.10;73.20;;;;;;4898986;29;19965;-77
2023/03/31 09:00:50;;;;;;;;;;;11.10;73.20;;;;;;4888309;29;20339;-79
2023/03/31 09:03:27;;;;;;;;;;;11.10;73.10;;;;;;4916248;29;19923;-77
2023/03/31 09:05:58;;;;;;;;;;;11.10;73.20;;;;;;4901083;29;19915;-76
2023/03/31 09:08:32;;;;;;;;;;;11.10;73.20;;;;;;4900068;29;19922;-78
2023/03/31 09:11:19;;;;;;;;;;;11.00;73.20;;;;;;4898548;29;19923;-76
2023/03/31 09:14:00;;;;;;;;;;;11.10;73.30;;;;;;4899623;29;20462;-78
2023/03/31 09:16:26;;;;;;;;;;;11.10;73.40;;;;;;4901285;29;19918;-76
2023/03/31 09:18:52;;;;;;;;;;;11.00;73.30;;;;;;4905825;29;19980;-75
2023/03/31 09:21:38;;;;;;;;;;;11.00;73.20;;;;;;4911679;29;20333;-75
2023/03/31 09:24:08;;;;;;;;;;;11.00;73.20;;;;;;4902851;29;20310;-76
2023/03/31 09:26:41;;;;;;;;;;;11.00;73.20;;;;;;4914402;29;19915;-79
2023/03/31 09:29:14;;;;;;;;;;;11.00;73.20;;;;;;4900555;29;19918;-78
2023/03/31 09:31:41;;;;;;;;;;;11.00;73.20;;;;;;4909810;29;19955;-78
2023/03/31 09:34:09;;;;;;;;;;;11.00;73.20;;;;;;4902310;29;19950;-77
2023/03/31 09:36:34;;;;;;;;;;;11.00;73.40;;;;;;4896088;29;20034;-77
2023/03/31 09:39:00;;;;;;;;;;;11.00;73.30;;;;;;4882099;29;19946;-76
2023/03/31 09:41:26;;;;;;;;;;;11.00;73.30;;;;;;4897399;29;19923;-78
2023/03/31 09:43:51;;;;;;;;;;;10.90;73.60;;;;;;4911169;29;19930;-77
2023/03/31 09:46:30;;;;;;;;;;;10.90;73.50;;;;;;4901792;29;19953;-78
2023/03/31 09:49:00;;;;;;;;;;;10.80;73.50;;;;;;4896796;29;20434;-78
2023/03/31 09:51:28;;;;;;;;;;;10.80;73.50;;;;;;4911561;29;19925;-75
2023/03/31 09:53:55;;;;;;;;;;;10.80;73.40;;;;;;4898810;29;20006;-77
2023/03/31 09:56:30;;;;;;;;;;;10.80;73.50;;;;;;4898456;29;19963;-77
2023/03/31 09:58:56;;;;;;;;;;;10.90;73.60;;;;;;4911135;29;20391;-78
2023/03/31 10:01:21;;;;;;;;;;;10.90;73.60;;;;;;4875678;29;19923;-78
2023/03/31 10:03:48;;;;;;;;;;;11.00;73.70;;;;;;4914451;29;19942;-78
2023/03/31 10:06:14;;;;;;;;;;;11.10;73.60;;;;;;4896518;29;19926;-78
2023/03/31 10:08:46;;;;;;;;;;;11.30;73.70;;;;;;4913319;29;19919;-78
2023/03/31 10:11:12;;;;;;;;;;;11.40;73.50;;;;;;4914148;29;19930;-77
2023/03/31 10:14:07;;;;;;;;;;;11.60;73.30;;;;;;4900618;29;19919;-78
2023/03/31 10:16:32;;;;;;;;;;;11.70;73.20;;;;;;4888550;29;19951;-78
2023/03/31 10:19:13;;;;;;;;;;;11.80;73.00;;;;;;4901336;29;20002;-77
2023/03/31 10:21:38;;;;;;;;;;;11.80;72.90;;;;;;4892682;29;19978;-79
2023/03/31 10:24:07;;;;;;;;;;;11.80;72.90;;;;;;4904123;29;19923;-80
2023/03/31 10:26:33;;;;;;;;;;;11.80;72.90;;;;;;4886062;29;19954;-77
2023/03/31 10:28:59;;;;;;;;;;;11.90;72.90;;;;;;4900183;29;19923;-79
2023/03/31 10:31:25;;;;;;;;;;;11.90;73.10;;;;;;4912851;29;19926;-79
2023/03/31 10:33:50;;;;;;;;;;;11.90;73.00;;;;;;4904858;29;19950;-79
2023/03/31 10:36:20;;;;;;;;;;;11.90;73.90;;;;;;4882268;29;19923;-81
2023/03/31 10:38:46;;;;;;;;;;;11.90;73.00;;;;;;4890917;29;20361;-79
2023/03/31 10:41:12;;;;;;;;;;;11.90;73.30;;;;;;4913570;29;19991;-79
2023/03/31 10:43:39;;;;;;;;;;;11.90;73.20;;;;;;4913656;29;19915;-77
2023/03/31 10:46:04;;;;;;;;;;;11.90;73.20;;;;;;4915286;29;20561;-80
2023/03/31 10:48:30;;;;;;;;;;;11.90;73.20;;;;;;4913393;28;19919;-78
2023/03/31 10:51:19;;;;;;;;;;;11.90;73.30;;;;;;4897738;29;20455;-80
2023/03/31 10:53:48;;;;;;;;;;;11.90;73.30;;;;;;4893128;29;19945;-79
2023/03/31 10:56:26;;;;;;;;;;;11.80;73.40;;;;;;4910175;29;20033;-76
2023/03/31 10:58:55;;;;;;;;;;;11.80;73.30;;;;;;4910659;29;19950;-78
2023/03/31 11:01:24;;;;;;;;;;;11.70;73.30;;;;;;4909302;29;19991;-81
2023/03/31 11:03:56;;;;;;;;;;;11.70;73.30;;;;;;4883773;29;19935;-79
2023/03/31 11:06:25;;;;;;;;;;;11.70;73.50;;;;;;4901154;29;19926;-80
2023/03/31 11:09:04;;;;;;;;;;;11.70;73.40;;;;;;4888976;29;19923;-79
2023/03/31 11:11:33;;;;;;;;;;;11.70;73.50;;;;;;4891921;29;19919;-79
2023/03/31 11:14:05;;;;;;;;;;;11.90;73.50;;;;;;4904332;29;19926;-80
2023/03/31 11:16:51;;;;;;;;;;;12.00;73.60;;;;;;4895784;29;19926;-79
2023/03/31 11:19:26;;;;;;;;;;;12.20;73.50;;;;;;4897189;29;19969;-79
2023/03/31 11:22:12;;;;;;;;;;;12.50;73.30;;;;;;4899359;29;19923;-77
2023/03/31 11:24:53;;;;;;;;;;;12.70;73.00;;;;;;4898103;29;19955;-80
2023/03/31 11:27:23;;;;;;;;;;;12.80;72.80;;;;;;4892975;29;19926;-80
2023/03/31 11:29:48;;;;;;;;;;;13.00;72.60;;;;;;4914309;29;20286;-78
2023/03/31 11:32:33;;;;;;;;;;;13.20;72.40;;;;;;4898045;29;19915;-79
2023/03/31 11:35:04;;;;;;;;;;;13.30;72.30;;;;;;4900077;29;19915;-79
2023/03/31 11:37:49;;;;;;;;;;;13.40;72.20;;;;;;4904714;29;19920;-79
2023/03/31 11:40:24;;;;;;;;;;;13.50;72.10;;;;;;4891142;29;19974;-78
2023/03/31 11:42:51;;;;;;;;;;;13.60;72.00;;;;;;4899958;29;20325;-79
2023/03/31 11:45:36;;;;;;;;;;;13.60;71.90;;;;;;4898849;29;20321;-80
2023/03/31 11:48:03;;;;;;;;;;;13.70;71.80;;;;;;4898838;29;20700;-79
2023/03/31 11:50:29;;;;;;;;;;;13.70;71.80;;;;;;4913937;29;19919;-79
2023/03/31 11:52:56;;;;;;;;;;;13.70;71.70;;;;;;4896706;29;19971;-80
2023/03/31 11:55:22;;;;;;;;;;;13.80;71.60;;;;;;4907004;29;19992;-78
2023/03/31 11:57:58;;;;;;;;;;;13.80;71.70;;;;;;4900178;29;20358;-79
2023/03/31 12:00:24;;;;;;;;;;;13.80;71.60;;;;;;4892597;29;19930;-77
2023/03/31 12:02:49;;;;;;;;;;;13.80;71.50;;;;;;4883408;29;19978;-77
2023/03/31 12:05:15;;;;;;;;;;;13.90;71.50;;;;;;4898905;29;20210;-79
2023/03/31 12:07:42;;;;;;;;;;;13.90;71.50;;;;;;4901104;29;19915;-78
2023/03/31 12:10:11;;;;;;;;;;;13.90;71.50;;;;;;4899547;29;20017;-76
2023/03/31 12:12:48;;;;;;;;;;;13.90;71.50;;;;;;4896942;29;19919;-78
2023/03/31 12:15:13;;;;;;;;;;;13.90;71.50;;;;;;4896556;29;19919;-78
2023/03/31 12:17:40;;;;;;;;;;;13.80;71.40;;;;;;4898593;29;19915;-76
2023/03/31 12:20:11;;;;;;;;;;;13.80;71.50;;;;;;4893645;29;20331;-77
2023/03/31 12:22:37;;;;;;;;;;;13.80;71.50;;;;;;4890596;29;19974;-77
2023/03/31 12:25:04;;;;;;;;;;;13.80;71.60;;;;;;4912557;29;19919;-77
2023/03/31 12:27:37;;;;;;;;;;;13.80;71.50;;;;;;4905327;29;19950;-77
2023/03/31 12:30:06;;;;;;;;;;;13.90;71.70;;;;;;4897101;29;20030;-75
2023/03/31 12:32:32;;;;;;;;;;;14.00;71.60;;;;;;4914243;29;19926;-76
2023/03/31 12:34:59;;;;;;;;;;;14.10;71.60;;;;;;4898201;29;19923;-75
2023/03/31 12:37:28;;;;;;;;;;;14.20;71.50;;;;;;4902426;29;20299;-75
2023/03/31 12:40:04;;;;;;;;;;;14.40;71.40;;;;;;4904634;29;20059;-75
2023/03/31 12:42:48;;;;;;;;;;;14.50;71.20;;;;;;4915332;29;19923;-78
2023/03/31 12:45:19;;;;;;;;;;;14.70;71.10;;;;;;4904128;29;19924;-78
2023/03/31 12:48:04;;;;;;;;;;;14.80;70.80;;;;;;4901516;29;19926;-80
2023/03/31 12:50:32;;;;;;;;;;;14.90;70.80;;;;;;4896860;29;19946;-79
2023/03/31 12:53:04;;;;;;;;;;;15.00;70.70;;;;;;4892386;29;19927;-78
2023/03/31 12:55:36;;;;;;;;;;;15.20;70.70;;;;;;4908854;28;19924;-76
2023/03/31 12:58:21;;;;;;;;;;;15.30;70.40;;;;;;4894416;29;19922;-77
2023/03/31 13:01:04;;;;;;;;;;;15.50;70.30;;;;;;4908565;29;20649;-79
2023/03/31 13:03:33;;;;;;;;;;;15.50;70.10;;;;;;4902079;29;19923;-79
2023/03/31 13:05:58;;;;;;;;;;;15.60;70.00;;;;;;4886727;29;19922;-75
2023/03/31 13:08:43;;;;;;;;;;;15.70;70.00;;;;;;4905170;29;19931;-79
2023/03/31 13:11:08;;;;;;;;;;;15.70;69.70;;;;;;4879711;29;19927;-77
2023/03/31 13:13:34;;;;;;;;;;;15.60;69.60;;;;;;4904028;29;19939;-79
2023/03/31 13:16:00;;;;;;;;;;;15.50;69.60;;;;;;4876519;29;20041;-78
2023/03/31 13:18:25;;;;;;;;;;;15.40;69.70;;;;;;4897296;29;20720;-77
2023/03/31 13:21:03;;;;;;;;;;;15.40;69.80;;;;;;4900364;29;19930;-78
2023/03/31 13:23:29;;;;;;;;;;;15.30;69.80;;;;;;4880982;29;19915;-79
2023/03/31 13:25:55;;;;;;;;;;;15.30;70.00;;;;;;4900195;28;19947;-77
2023/03/31 13:28:20;;;;;;;;;;;15.20;70.00;;;;;;4901788;29;19923;-79
2023/03/31 13:30:50;;;;;;;;;;;15.20;70.00;;;;;;4899842;29;19923;-79
2023/03/31 13:33:18;;;;;;;;;;;15.20;70.20;;;;;;4889927;29;20643;-80
2023/03/31 13:35:48;;;;;;;;;;;15.20;70.20;;;;;;4896518;29;19933;-79
2023/03/31 13:38:33;;;;;;;;;;;15.20;70.20;;;;;;4898731;29;19974;-79
2023/03/31 13:41:00;;;;;;;;;;;15.30;70.20;;;;;;4900479;29;20033;-79
2023/03/31 13:43:26;;;;;;;;;;;15.30;70.00;;;;;;4889851;29;19920;-76
2023/03/31 13:45:57;;;;;;;;;;;15.30;70.00;;;;;;4907830;29;19929;-78
2023/03/31 13:48:25;;;;;;;;;;;15.30;70.00;;;;;;4881085;29;19984;-80
2023/03/31 13:50:51;;;;;;;;;;;15.30;70.70;;;;;;4905848;29;20637;-79
2023/03/31 13:53:19;;;;;;;;;;;15.20;69.90;;;;;;4859449;29;19981;-78
2023/03/31 13:55:45;;;;;;;;;;;15.10;70.00;;;;;;4901786;29;19930;-79
2023/03/31 13:58:34;;;;;;;;;;;15.00;70.00;;;;;;4893649;29;19927;-80
2023/03/31 14:01:18;;;;;;;;;;;15.00;70.10;;;;;;4888452;29;19919;-78
2023/03/31 14:03:49;;;;;;;;;;;14.90;70.20;;;;;;4859455;29;19963;-79
2023/03/31 14:06:19;;;;;;;;;;;14.80;70.20;;;;;;4851754;29;20026;-79
2023/03/31 14:08:50;;;;;;;;;;;14.80;70.30;;;;;;4868812;29;20766;-80
2023/03/31 14:11:28;;;;;;;;;;;14.70;70.40;;;;;;4883615;29;20519;-81
2023/03/31 14:14:08;;;;;;;;;;;14.70;70.50;;;;;;4882372;29;19924;-79
2023/03/31 14:16:54;;;;;;;;;;;14.90;70.60;;;;;;4876339;29;19923;-77
2023/03/31 14:19:20;;;;;;;;;;;15.10;70.80;;;;;;4885536;29;19923;-77
2023/03/31 14:21:46;;;;;;;;;;;15.30;70.50;;;;;;4884558;29;19939;-77
2023/03/31 14:24:25;;;;;;;;;;;15.40;70.30;;;;;;4886009;29;19947;-80